sensor_id;sensor_type;location;lat;lon;timestamp;pressure;altitude;pressure_sealevel;temperature;humidity
73842;BME280;62184;52.006;5.924;2022-12-29T00:00:18;99299.56;;;11.75;79.69
73842;BME280;62184;52.006;5.924;2022-12-29T00:02:44;99288.94;;;11.74;79.69
73842;BME280;62184;52.006;5.924;2022-12-29T00:05:11;99283.59;;;11.74;79.55
73842;BME280;62184;52.006;5.924;2022-12-29T00:07:37;99287.06;;;11.76;79.77
73842;BME280;62184;52.006;5.924;2022-12-29T00:10:06;99273.59;;;11.77;79.71
73842;BME280;62184;52.006;5.924;2022-12-29T00:12:35;99275.31;;;11.78;79.24
73842;BME280;62184;52.006;5.924;2022-12-29T00:15:02;99267.31;;;11.78;79.38
73842;BME280;62184;52.006;5.924;2022-12-29T00:17:29;99269.03;;;11.79;79.62
73842;BME280;62184;52.006;5.924;2022-12-29T00:19:56;99277.94;;;11.80;79.13
73842;BME280;62184;52.006;5.924;2022-12-29T00:22:22;99259.28;;;11.78;79.39
73842;BME280;62184;52.006;5.924;2022-12-29T00:24:49;99254.94;;;11.76;79.03
73842;BME280;62184;52.006;5.924;2022-12-29T00:27:16;99244.25;;;11.76;79.29
73842;BME280;62184;52.006;5.924;2022-12-29T00:29:45;99261.16;;;11.76;79.25
73842;BME280;62184;52.006;5.924;2022-12-29T00:32:11;99250.47;;;11.76;79.47
73842;BME280;62184;52.006;5.924;2022-12-29T00:34:38;99254.94;;;11.76;79.44
73842;BME280;62184;52.006;5.924;2022-12-29T00:37:04;99262.91;;;11.77;79.14
73842;BME280;62184;52.006;5.924;2022-12-29T00:39:31;99253.94;;;11.78;78.93
73842;BME280;62184;52.006;5.924;2022-12-29T00:42:03;99249.34;;;11.80;79.07
73842;BME280;62184;52.006;5.924;2022-12-29T00:44:30;99232.34;;;11.81;79.02
73842;BME280;62184;52.006;5.924;2022-12-29T00:46:59;99229.66;;;11.81;78.84
73842;BME280;62184;52.006;5.924;2022-12-29T00:49:25;99243.03;;;11.81;79.18
73842;BME280;62184;52.006;5.924;2022-12-29T00:51:52;99223.63;;;11.78;78.82
73842;BME280;62184;52.006;5.924;2022-12-29T00:54:19;99237.03;;;11.78;79.19
73842;BME280;62184;52.006;5.924;2022-12-29T00:56:46;99225.44;;;11.77;78.99
73842;BME280;62184;52.006;5.924;2022-12-29T00:59:13;99218.22;;;11.79;79.28
73842;BME280;62184;52.006;5.924;2022-12-29T01:01:40;99227.00;;;11.81;78.90
73842;BME280;62184;52.006;5.924;2022-12-29T01:04:10;99205.50;;;11.83;78.83
73842;BME280;62184;52.006;5.924;2022-12-29T01:06:39;99215.25;;;11.84;78.76
73842;BME280;62184;52.006;5.924;2022-12-29T01:09:07;99214.41;;;11.83;78.70
73842;BME280;62184;52.006;5.924;2022-12-29T01:11:34;99202.06;;;11.81;78.79
73842;BME280;62184;52.006;5.924;2022-12-29T01:14:00;99206.44;;;11.82;78.52
73842;BME280;62184;52.006;5.924;2022-12-29T01:16:27;99200.16;;;11.83;78.63
73842;BME280;62184;52.006;5.924;2022-12-29T01:18:53;99200.09;;;11.84;78.56
73842;BME280;62184;52.006;5.924;2022-12-29T01:21:22;99189.53;;;11.81;78.34
73842;BME280;62184;52.006;5.924;2022-12-29T01:23:49;99185.91;;;11.82;78.23
73842;BME280;62184;52.006;5.924;2022-12-29T01:26:17;99166.25;;;11.83;78.25
73842;BME280;62184;52.006;5.924;2022-12-29T01:28:44;99171.53;;;11.85;78.12
73842;BME280;62184;52.006;5.924;2022-12-29T01:31:13;99194.03;;;11.81;78.32
73842;BME280;62184;52.006;5.924;2022-12-29T01:33:40;99179.97;;;11.77;78.24
73842;BME280;62184;52.006;5.924;2022-12-29T01:36:09;99188.16;;;11.74;78.66
73842;BME280;62184;52.006;5.924;2022-12-29T01:38:40;99177.53;;;11.73;78.63
73842;BME280;62184;52.006;5.924;2022-12-29T01:41:09;99183.75;;;11.73;78.54
73842;BME280;62184;52.006;5.924;2022-12-29T01:43:42;99179.34;;;11.72;78.67
73842;BME280;62184;52.006;5.924;2022-12-29T01:46:18;99162.47;;;11.72;78.72
73842;BME280;62184;52.006;5.924;2022-12-29T01:48:50;99182.81;;;11.74;78.65
73842;BME280;62184;52.006;5.924;2022-12-29T01:51:21;99172.97;;;11.75;78.68
73842;BME280;62184;52.006;5.924;2022-12-29T01:53:55;99161.34;;;11.76;78.46
73842;BME280;62184;52.006;5.924;2022-12-29T01:56:26;99173.84;;;11.75;78.62
73842;BME280;62184;52.006;5.924;2022-12-29T01:58:58;99171.09;;;11.77;78.83
73842;BME280;62184;52.006;5.924;2022-12-29T02:01:27;99163.94;;;11.77;78.71
73842;BME280;62184;52.006;5.924;2022-12-29T02:03:54;99171.97;;;11.77;78.66
73842;BME280;62184;52.006;5.924;2022-12-29T02:06:23;99171.69;;;11.82;78.83
73842;BME280;62184;52.006;5.924;2022-12-29T02:08:56;99168.06;;;11.83;78.71
73842;BME280;62184;52.006;5.924;2022-12-29T02:11:25;99179.47;;;11.86;78.87
73842;BME280;62184;52.006;5.924;2022-12-29T02:13:54;99166.94;;;11.87;78.86
73842;BME280;62184;52.006;5.924;2022-12-29T02:16:35;99171.44;;;11.86;78.77
73842;BME280;62184;52.006;5.924;2022-12-29T02:22:27;99170.66;;;11.84;78.90
73842;BME280;62184;52.006;5.924;2022-12-29T02:25:32;99188.50;;;11.84;78.67
73842;BME280;62184;52.006;5.924;2022-12-29T02:29:05;99191.47;;;11.79;78.98
73842;BME280;62184;52.006;5.924;2022-12-29T02:32:03;99184.38;;;11.78;79.38
73842;BME280;62184;52.006;5.924;2022-12-29T02:34:42;99191.53;;;11.78;79.28
73842;BME280;62184;52.006;5.924;2022-12-29T02:37:27;99173.59;;;11.80;79.62
73842;BME280;62184;52.006;5.924;2022-12-29T02:40:06;99173.41;;;11.83;79.66
73842;BME280;62184;52.006;5.924;2022-12-29T02:42:46;99172.47;;;11.84;79.85
73842;BME280;62184;52.006;5.924;2022-12-29T02:45:21;99177.91;;;11.82;79.55
73842;BME280;62184;52.006;5.924;2022-12-29T02:48:04;99126.28;;;11.80;79.87
73842;BME280;62184;52.006;5.924;2022-12-29T02:50:38;99169.88;;;11.82;79.80
73842;BME280;62184;52.006;5.924;2022-12-29T02:53:13;99158.31;;;11.82;79.79
73842;BME280;62184;52.006;5.924;2022-12-29T02:55:47;99136.66;;;11.86;79.71
73842;BME280;62184;52.006;5.924;2022-12-29T02:58:18;99163.13;;;11.91;79.55
73842;BME280;62184;52.006;5.924;2022-12-29T03:01:06;99157.69;;;11.92;79.50
73842;BME280;62184;52.006;5.924;2022-12-29T03:03:57;99153.50;;;11.88;79.05
73842;BME280;62184;52.006;5.924;2022-12-29T03:06:43;99164.53;;;11.82;78.79
73842;BME280;62184;52.006;5.924;2022-12-29T03:09:29;99147.88;;;11.77;78.34
73842;BME280;62184;52.006;5.924;2022-12-29T03:12:11;99141.66;;;11.77;78.55
73842;BME280;62184;52.006;5.924;2022-12-29T03:14:57;99137.97;;;11.79;78.35
73842;BME280;62184;52.006;5.924;2022-12-29T03:17:31;99133.38;;;11.81;78.01
73842;BME280;62184;52.006;5.924;2022-12-29T03:20:10;99150.19;;;11.83;77.91
73842;BME280;62184;52.006;5.924;2022-12-29T03:22:44;99160.03;;;11.83;78.09
73842;BME280;62184;52.006;5.924;2022-12-29T03:25:18;99151.78;;;11.72;80.00
73842;BME280;62184;52.006;5.924;2022-12-29T03:27:50;99147.19;;;11.58;80.63
73842;BME280;62184;52.006;5.924;2022-12-29T03:30:22;99142.09;;;11.38;81.06
73842;BME280;62184;52.006;5.924;2022-12-29T03:32:52;99134.75;;;11.26;81.86
73842;BME280;62184;52.006;5.924;2022-12-29T03:35:25;99125.06;;;11.23;82.41
73842;BME280;62184;52.006;5.924;2022-12-29T03:38:10;99126.22;;;11.19;82.07
73842;BME280;62184;52.006;5.924;2022-12-29T03:40:44;99124.41;;;11.20;82.53
73842;BME280;62184;52.006;5.924;2022-12-29T03:43:15;99118.09;;;11.21;82.62
73842;BME280;62184;52.006;5.924;2022-12-29T03:45:43;99123.97;;;11.27;82.41
73842;BME280;62184;52.006;5.924;2022-12-29T03:48:09;99129.06;;;11.32;82.72
73842;BME280;62184;52.006;5.924;2022-12-29T03:50:38;99142.09;;;11.38;82.39
73842;BME280;62184;52.006;5.924;2022-12-29T03:53:05;99125.88;;;11.41;82.41
73842;BME280;62184;52.006;5.924;2022-12-29T03:55:31;99136.41;;;11.44;81.93
73842;BME280;62184;52.006;5.924;2022-12-29T03:57:58;99139.00;;;11.45;81.59
73842;BME280;62184;52.006;5.924;2022-12-29T04:00:24;99130.88;;;11.47;81.72
73842;BME280;62184;52.006;5.924;2022-12-29T04:02:51;99135.19;;;11.49;81.45
73842;BME280;62184;52.006;5.924;2022-12-29T04:05:17;99125.38;;;11.50;81.03
73842;BME280;62184;52.006;5.924;2022-12-29T04:07:46;99133.31;;;11.51;80.96
73842;BME280;62184;52.006;5.924;2022-12-29T04:10:13;99148.31;;;11.54;80.88
73842;BME280;62184;52.006;5.924;2022-12-29T04:12:39;99135.69;;;11.56;80.72
73842;BME280;62184;52.006;5.924;2022-12-29T04:15:07;99140.97;;;11.58;80.52
73842;BME280;62184;52.006;5.924;2022-12-29T04:17:34;99145.38;;;11.59;80.69
73842;BME280;62184;52.006;5.924;2022-12-29T04:20:01;99145.28;;;11.60;80.51
73842;BME280;62184;52.006;5.924;2022-12-29T04:22:27;99143.47;;;11.61;80.39
73842;BME280;62184;52.006;5.924;2022-12-29T04:24:56;99140.81;;;11.61;80.07
73842;BME280;62184;52.006;5.924;2022-12-29T04:27:22;99134.53;;;11.62;79.72
73842;BME280;62184;52.006;5.924;2022-12-29T04:29:49;99128.97;;;11.65;80.07
73842;BME280;62184;52.006;5.924;2022-12-29T04:32:15;99130.03;;;11.62;79.82
73842;BME280;62184;52.006;5.924;2022-12-29T04:34:42;99144.16;;;11.64;79.57
73842;BME280;62184;52.006;5.924;2022-12-29T04:37:08;99139.66;;;11.65;79.51
73842;BME280;62184;52.006;5.924;2022-12-29T04:39:34;99149.50;;;11.64;79.68
73842;BME280;62184;52.006;5.924;2022-12-29T04:42:04;99152.28;;;11.63;79.30
73842;BME280;62184;52.006;5.924;2022-12-29T04:44:30;99162.28;;;11.59;79.44
73842;BME280;62184;52.006;5.924;2022-12-29T04:46:56;99155.19;;;11.58;79.57
73842;BME280;62184;52.006;5.924;2022-12-29T04:49:23;99156.41;;;11.52;78.83
73842;BME280;62184;52.006;5.924;2022-12-29T04:51:49;99153.13;;;11.47;79.28
73842;BME280;62184;52.006;5.924;2022-12-29T04:54:16;99168.56;;;11.42;79.28
73842;BME280;62184;52.006;5.924;2022-12-29T04:56:42;99166.84;;;11.41;79.33
73842;BME280;62184;52.006;5.924;2022-12-29T04:59:11;99155.34;;;11.39;79.26
73842;BME280;62184;52.006;5.924;2022-12-29T05:01:38;99161.75;;;11.37;78.79
73842;BME280;62184;52.006;5.924;2022-12-29T05:04:04;99174.41;;;11.33;78.95
73842;BME280;62184;52.006;5.924;2022-12-29T05:06:30;99163.19;;;11.27;78.53
73842;BME280;62184;52.006;5.924;2022-12-29T05:08:57;99189.94;;;11.27;78.74
73842;BME280;62184;52.006;5.924;2022-12-29T05:11:23;99185.78;;;11.21;78.01
73842;BME280;62184;52.006;5.924;2022-12-29T05:13:50;99179.56;;;11.21;78.07
73842;BME280;62184;52.006;5.924;2022-12-29T05:16:19;99177.06;;;11.18;77.60
73842;BME280;62184;52.006;5.924;2022-12-29T05:18:45;99174.38;;;11.18;77.48
73842;BME280;62184;52.006;5.924;2022-12-29T05:21:11;99173.59;;;11.15;77.28
73842;BME280;62184;52.006;5.924;2022-12-29T05:23:38;99193.16;;;11.16;76.78
73842;BME280;62184;52.006;5.924;2022-12-29T05:26:04;99186.97;;;11.15;75.77
73842;BME280;62184;52.006;5.924;2022-12-29T05:28:31;99195.91;;;11.14;76.27
73842;BME280;62184;52.006;5.924;2022-12-29T05:30:57;99194.09;;;11.15;76.22
73842;BME280;62184;52.006;5.924;2022-12-29T05:33:26;99205.84;;;11.12;76.18
73842;BME280;62184;52.006;5.924;2022-12-29T05:35:53;99197.84;;;11.12;75.97
73842;BME280;62184;52.006;5.924;2022-12-29T05:38:19;99204.72;;;11.16;76.19
73842;BME280;62184;52.006;5.924;2022-12-29T05:40:45;99215.56;;;11.13;76.24
73842;BME280;62184;52.006;5.924;2022-12-29T05:43:12;99220.44;;;11.05;76.34
73842;BME280;62184;52.006;5.924;2022-12-29T05:45:38;99228.09;;;10.96;76.71
73842;BME280;62184;52.006;5.924;2022-12-29T05:48:05;99218.75;;;10.87;76.65
73842;BME280;62184;52.006;5.924;2022-12-29T05:50:34;99219.84;;;10.83;77.15
73842;BME280;62184;52.006;5.924;2022-12-29T05:53:00;99214.84;;;10.77;77.26
73842;BME280;62184;52.006;5.924;2022-12-29T05:55:27;99216.00;;;10.71;77.34
73842;BME280;62184;52.006;5.924;2022-12-29T05:57:53;99218.88;;;10.67;77.57
73842;BME280;62184;52.006;5.924;2022-12-29T06:00:20;99224.47;;;10.62;77.17
73842;BME280;62184;52.006;5.924;2022-12-29T06:02:46;99233.34;;;10.63;77.36
73842;BME280;62184;52.006;5.924;2022-12-29T06:05:12;99225.22;;;10.64;77.31
73842;BME280;62184;52.006;5.924;2022-12-29T06:07:42;99213.63;;;10.65;77.31
73842;BME280;62184;52.006;5.924;2022-12-29T06:10:08;99203.88;;;10.64;77.16
73842;BME280;62184;52.006;5.924;2022-12-29T06:12:34;99211.81;;;10.66;77.26
73842;BME280;62184;52.006;5.924;2022-12-29T06:15:01;99224.94;;;10.70;76.96
73842;BME280;62184;52.006;5.924;2022-12-29T06:17:27;99232.72;;;10.75;77.04
73842;BME280;62184;52.006;5.924;2022-12-29T06:19:54;99221.03;;;10.77;76.50
73842;BME280;62184;52.006;5.924;2022-12-29T06:22:20;99231.03;;;10.72;76.20
73842;BME280;62184;52.006;5.924;2022-12-29T06:24:49;99223.13;;;10.71;76.02
73842;BME280;62184;52.006;5.924;2022-12-29T06:27:16;99233.72;;;10.72;75.89
73842;BME280;62184;52.006;5.924;2022-12-29T06:29:42;99234.56;;;10.73;75.55
73842;BME280;62184;52.006;5.924;2022-12-29T06:32:09;99241.66;;;10.74;75.58
73842;BME280;62184;52.006;5.924;2022-12-29T06:34:36;99252.34;;;10.74;75.20
73842;BME280;62184;52.006;5.924;2022-12-29T06:37:02;99234.47;;;10.76;75.07
73842;BME280;62184;52.006;5.924;2022-12-29T06:39:29;99238.97;;;10.74;74.86
73842;BME280;62184;52.006;5.924;2022-12-29T06:41:58;99247.81;;;10.76;74.83
73842;BME280;62184;52.006;5.924;2022-12-29T06:44:24;99237.06;;;10.77;74.59
73842;BME280;62184;52.006;5.924;2022-12-29T06:46:51;99243.28;;;10.78;74.17
73842;BME280;62184;52.006;5.924;2022-12-29T06:49:17;99227.25;;;10.78;74.27
73842;BME280;62184;52.006;5.924;2022-12-29T06:51:44;99234.41;;;10.77;73.87
73842;BME280;62184;52.006;5.924;2022-12-29T06:54:10;99234.41;;;10.77;74.00
73842;BME280;62184;52.006;5.924;2022-12-29T06:56:36;99240.53;;;10.80;73.58
73842;BME280;62184;52.006;5.924;2022-12-29T06:59:05;99241.53;;;10.77;73.29
73842;BME280;62184;52.006;5.924;2022-12-29T07:01:32;99243.41;;;10.75;73.42
73842;BME280;62184;52.006;5.924;2022-12-29T07:03:59;99226.53;;;10.74;73.29
73842;BME280;62184;52.006;5.924;2022-12-29T07:06:25;99243.34;;;10.76;73.27
73842;BME280;62184;52.006;5.924;2022-12-29T07:08:52;99242.41;;;10.77;73.42
73842;BME280;62184;52.006;5.924;2022-12-29T07:11:18;99251.97;;;10.82;73.04
73842;BME280;62184;52.006;5.924;2022-12-29T07:13:44;99250.16;;;10.82;72.88
73842;BME280;62184;52.006;5.924;2022-12-29T07:16:13;99242.16;;;10.82;72.72
73842;BME280;62184;52.006;5.924;2022-12-29T07:18:40;99248.22;;;10.86;72.67
73842;BME280;62184;52.006;5.924;2022-12-29T07:21:06;99251.69;;;10.88;72.26
73842;BME280;62184;52.006;5.924;2022-12-29T07:23:33;99255.22;;;10.88;72.32
73842;BME280;62184;52.006;5.924;2022-12-29T07:26:00;99257.09;;;10.86;72.18
73842;BME280;62184;52.006;5.924;2022-12-29T07:28:26;99257.97;;;10.87;72.44
73842;BME280;62184;52.006;5.924;2022-12-29T07:30:53;99257.09;;;10.86;72.15
73842;BME280;62184;52.006;5.924;2022-12-29T07:33:22;99251.69;;;10.88;72.27
73842;BME280;62184;52.006;5.924;2022-12-29T07:35:48;99255.97;;;10.90;72.22
73842;BME280;62184;52.006;5.924;2022-12-29T07:38:15;99257.72;;;10.91;72.00
73842;BME280;62184;52.006;5.924;2022-12-29T07:40:42;99270.13;;;10.92;71.66
73842;BME280;62184;52.006;5.924;2022-12-29T07:43:08;99260.31;;;10.93;72.24
73842;BME280;62184;52.006;5.924;2022-12-29T07:45:35;99262.97;;;10.93;71.73
73842;BME280;62184;52.006;5.924;2022-12-29T07:48:01;99274.53;;;10.93;71.03
73842;BME280;62184;52.006;5.924;2022-12-29T07:50:30;99279.16;;;10.90;71.30
73842;BME280;62184;52.006;5.924;2022-12-29T07:52:57;99285.53;;;10.87;71.67
73842;BME280;62184;52.006;5.924;2022-12-29T07:55:23;99296.03;;;10.90;71.82
73842;BME280;62184;52.006;5.924;2022-12-29T07:57:49;99294.97;;;10.94;71.79
73842;BME280;62184;52.006;5.924;2022-12-29T08:00:18;99302.81;;;10.97;71.69
73842;BME280;62184;52.006;5.924;2022-12-29T08:02:45;99326.63;;;11.02;71.32
73842;BME280;62184;52.006;5.924;2022-12-29T08:05:11;99306.19;;;11.01;71.21
73842;BME280;62184;52.006;5.924;2022-12-29T08:07:42;99315.16;;;11.00;71.16
73842;BME280;62184;52.006;5.924;2022-12-29T08:10:08;99308.94;;;10.99;71.08
73842;BME280;62184;52.006;5.924;2022-12-29T08:12:37;99308.25;;;10.96;70.77
73842;BME280;62184;52.006;5.924;2022-12-29T08:15:06;99319.31;;;10.88;70.34
73842;BME280;62184;52.006;5.924;2022-12-29T08:17:35;99319.41;;;10.87;70.73
73842;BME280;62184;52.006;5.924;2022-12-29T08:20:02;99315.00;;;10.86;70.62
73842;BME280;62184;52.006;5.924;2022-12-29T08:22:30;99325.69;;;10.86;70.75
73842;BME280;62184;52.006;5.924;2022-12-29T08:24:59;99324.75;;;10.87;70.61
73842;BME280;62184;52.006;5.924;2022-12-29T08:27:26;99323.63;;;10.91;70.54
73842;BME280;62184;52.006;5.924;2022-12-29T08:29:52;99323.47;;;10.94;70.44
73842;BME280;62184;52.006;5.924;2022-12-29T08:32:18;99320.75;;;10.95;70.61
73842;BME280;62184;52.006;5.924;2022-12-29T08:34:45;99320.56;;;10.98;70.19
73842;BME280;62184;52.006;5.924;2022-12-29T08:37:12;99317.66;;;11.03;70.02
73842;BME280;62184;52.006;5.924;2022-12-29T08:39:38;99323.56;;;11.09;69.56
73842;BME280;62184;52.006;5.924;2022-12-29T08:42:07;99328.59;;;11.15;69.77
73842;BME280;62184;52.006;5.924;2022-12-29T08:44:34;99315.00;;;11.20;69.12
73842;BME280;62184;52.006;5.924;2022-12-29T08:47:00;99310.66;;;11.18;68.15
73842;BME280;62184;52.006;5.924;2022-12-29T08:49:26;99322.38;;;11.15;68.76
73842;BME280;62184;52.006;5.924;2022-12-29T08:51:53;99311.94;;;11.10;68.63
73842;BME280;62184;52.006;5.924;2022-12-29T08:54:19;99321.69;;;11.11;69.41
73842;BME280;62184;52.006;5.924;2022-12-29T08:56:46;99323.25;;;11.15;69.02
73842;BME280;62184;52.006;5.924;2022-12-29T08:59:15;99315.16;;;11.17;68.48
73842;BME280;62184;52.006;5.924;2022-12-29T09:01:41;99313.34;;;11.18;68.97
73842;BME280;62184;52.006;5.924;2022-12-29T09:04:08;99327.56;;;11.18;69.23
73842;BME280;62184;52.006;5.924;2022-12-29T09:06:34;99324.66;;;11.23;69.48
73842;BME280;62184;52.006;5.924;2022-12-29T09:09:01;99310.28;;;11.25;69.18
73842;BME280;62184;52.006;5.924;2022-12-29T09:11:27;99320.97;;;11.25;68.54
73842;BME280;62184;52.006;5.924;2022-12-29T09:13:54;99322.75;;;11.25;69.18
73842;BME280;62184;52.006;5.924;2022-12-29T09:16:24;99323.56;;;11.27;69.47
73842;BME280;62184;52.006;5.924;2022-12-29T09:18:50;99321.91;;;11.24;68.99
73842;BME280;62184;52.006;5.924;2022-12-29T09:21:17;99316.00;;;11.18;69.61
73842;BME280;62184;52.006;5.924;2022-12-29T09:23:43;99325.84;;;11.17;69.31
73842;BME280;62184;52.006;5.924;2022-12-29T09:26:10;99325.13;;;11.13;69.84
73842;BME280;62184;52.006;5.924;2022-12-29T09:28:36;99324.28;;;11.13;69.78
73842;BME280;62184;52.006;5.924;2022-12-29T09:31:03;99346.41;;;11.15;69.80
73842;BME280;62184;52.006;5.924;2022-12-29T09:33:32;99328.09;;;11.07;69.22
73842;BME280;62184;52.006;5.924;2022-12-29T09:35:58;99345.88;;;11.08;69.83
73842;BME280;62184;52.006;5.924;2022-12-29T09:38:26;99347.69;;;11.08;69.75
73842;BME280;62184;52.006;5.924;2022-12-29T09:40:55;99348.53;;;11.08;68.14
73842;BME280;62184;52.006;5.924;2022-12-29T09:43:38;99365.44;;;11.09;69.64
73842;BME280;62184;52.006;5.924;2022-12-29T09:46:24;99349.50;;;11.07;70.12
73842;BME280;62184;52.006;5.924;2022-12-29T09:49:06;99359.31;;;11.07;70.12
73842;BME280;62184;52.006;5.924;2022-12-29T09:51:43;99371.09;;;11.03;70.18
73842;BME280;62184;52.006;5.924;2022-12-29T09:54:23;99363.22;;;11.00;70.52
73842;BME280;62184;52.006;5.924;2022-12-29T09:57:15;99383.97;;;10.95;70.46
73842;BME280;62184;52.006;5.924;2022-12-29T09:59:45;99368.34;;;10.87;70.24
73842;BME280;62184;52.006;5.924;2022-12-29T10:02:27;99390.66;;;10.86;70.94
73842;BME280;62184;52.006;5.924;2022-12-29T10:05:00;99390.41;;;10.91;71.04
73842;BME280;62184;52.006;5.924;2022-12-29T10:07:38;99399.47;;;10.88;71.03
73842;BME280;62184;52.006;5.924;2022-12-29T10:10:20;99408.53;;;10.84;71.44
73842;BME280;62184;52.006;5.924;2022-12-29T10:13:04;99403.56;;;10.76;72.14
73842;BME280;62184;52.006;5.924;2022-12-29T10:15:51;99385.22;;;10.69;72.42
73842;BME280;62184;52.006;5.924;2022-12-29T10:18:40;99401.38;;;10.66;72.85
73842;BME280;62184;52.006;5.924;2022-12-29T10:21:36;99408.75;;;10.61;73.23
73842;BME280;62184;52.006;5.924;2022-12-29T10:24:14;99407.03;;;10.60;73.53
73842;BME280;62184;52.006;5.924;2022-12-29T10:26:43;99413.16;;;10.62;73.80
73842;BME280;62184;52.006;5.924;2022-12-29T10:29:16;99425.72;;;10.60;73.90
73842;BME280;62184;52.006;5.924;2022-12-29T10:31:48;99418.13;;;10.51;74.37
73842;BME280;62184;52.006;5.924;2022-12-29T10:34:25;99422.75;;;10.47;74.78
73842;BME280;62184;52.006;5.924;2022-12-29T10:37:02;99422.84;;;10.46;75.37
73842;BME280;62184;52.006;5.924;2022-12-29T10:39:40;99423.84;;;10.43;75.08
73842;BME280;62184;52.006;5.924;2022-12-29T10:42:13;99432.56;;;10.47;75.68
73842;BME280;62184;52.006;5.924;2022-12-29T10:44:53;99426.66;;;10.40;75.40
73842;BME280;62184;52.006;5.924;2022-12-29T10:47:23;99433.78;;;10.39;75.53
73842;BME280;62184;52.006;5.924;2022-12-29T10:49:53;99448.88;;;10.40;75.64
73842;BME280;62184;52.006;5.924;2022-12-29T10:52:23;99444.69;;;10.35;75.92
73842;BME280;62184;52.006;5.924;2022-12-29T10:54:54;99451.88;;;10.33;76.16
73842;BME280;62184;52.006;5.924;2022-12-29T10:57:27;99462.69;;;10.30;76.26
73842;BME280;62184;52.006;5.924;2022-12-29T10:59:58;99462.91;;;10.25;76.65
73842;BME280;62184;52.006;5.924;2022-12-29T11:02:51;99462.97;;;10.24;76.62
73842;BME280;62184;52.006;5.924;2022-12-29T11:05:37;99471.00;;;10.24;77.19
73842;BME280;62184;52.006;5.924;2022-12-29T11:08:17;99482.41;;;10.27;76.93
73842;BME280;62184;52.006;5.924;2022-12-29T11:10:46;99479.56;;;10.30;77.08
73842;BME280;62184;52.006;5.924;2022-12-29T11:13:26;99487.56;;;10.30;76.98
73842;BME280;62184;52.006;5.924;2022-12-29T11:15:53;99485.00;;;10.29;77.09
73842;BME280;62184;52.006;5.924;2022-12-29T11:18:22;99499.13;;;10.31;76.97
73842;BME280;62184;52.006;5.924;2022-12-29T11:20:52;99500.72;;;10.35;76.88
73842;BME280;62184;52.006;5.924;2022-12-29T11:23:26;99498.78;;;10.38;77.02
73842;BME280;62184;52.006;5.924;2022-12-29T11:26:20;99518.13;;;10.44;76.63
73842;BME280;62184;52.006;5.924;2022-12-29T11:29:08;99506.25;;;10.51;76.64
73842;BME280;62184;52.006;5.924;2022-12-29T11:31:44;99514.88;;;10.56;76.29
73842;BME280;62184;52.006;5.924;2022-12-29T11:34:17;99521.19;;;10.55;76.15
73842;BME280;62184;52.006;5.924;2022-12-29T11:36:46;99516.78;;;10.54;76.21
73842;BME280;62184;52.006;5.924;2022-12-29T11:39:41;99516.78;;;10.54;76.15
73842;BME280;62184;52.006;5.924;2022-12-29T11:42:17;99522.25;;;10.51;76.31
73842;BME280;62184;52.006;5.924;2022-12-29T11:44:49;99517.03;;;10.48;76.52
73842;BME280;62184;52.006;5.924;2022-12-29T11:47:25;99530.25;;;10.51;76.60
73842;BME280;62184;52.006;5.924;2022-12-29T11:49:57;99530.91;;;10.56;76.62
73842;BME280;62184;52.006;5.924;2022-12-29T11:52:28;99541.41;;;10.60;76.52
73842;BME280;62184;52.006;5.924;2022-12-29T11:55:01;99543.19;;;10.60;76.29
73842;BME280;62184;52.006;5.924;2022-12-29T11:57:33;99540.66;;;10.57;76.01
73842;BME280;62184;52.006;5.924;2022-12-29T12:00:03;99545.06;;;10.58;76.13
73842;BME280;62184;52.006;5.924;2022-12-29T12:02:43;99541.16;;;10.65;76.15
73842;BME280;62184;52.006;5.924;2022-12-29T12:05:37;99548.91;;;10.71;75.76
73842;BME280;62184;52.006;5.924;2022-12-29T12:08:14;99550.63;;;10.72;75.46
73842;BME280;62184;52.006;5.924;2022-12-29T12:10:51;99540.91;;;10.71;75.37
73842;BME280;62184;52.006;5.924;2022-12-29T12:13:27;99541.84;;;10.70;75.22
73842;BME280;62184;52.006;5.924;2022-12-29T12:16:04;99552.47;;;10.71;75.25
73842;BME280;62184;52.006;5.924;2022-12-29T12:18:41;99531.84;;;10.75;75.29
73842;BME280;62184;52.006;5.924;2022-12-29T12:21:19;99530.53;;;10.84;74.64
73842;BME280;62184;52.006;5.924;2022-12-29T12:24:16;99550.69;;;10.91;74.36
73842;BME280;62184;52.006;5.924;2022-12-29T12:27:10;99561.94;;;10.97;73.77
73842;BME280;62184;52.006;5.924;2022-12-29T12:29:50;99562.75;;;10.99;73.54
73842;BME280;62184;52.006;5.924;2022-12-29T12:32:26;99557.25;;;11.02;73.72
73842;BME280;62184;52.006;5.924;2022-12-29T12:35:01;99568.94;;;11.00;73.44
73842;BME280;62184;52.006;5.924;2022-12-29T12:37:53;99571.69;;;10.98;73.24
73842;BME280;62184;52.006;5.924;2022-12-29T12:40:43;99570.06;;;10.96;72.96
73842;BME280;62184;52.006;5.924;2022-12-29T12:43:46;99592.06;;;11.01;73.44
73842;BME280;62184;52.006;5.924;2022-12-29T12:46:48;99584.56;;;11.09;72.99
73842;BME280;62184;52.006;5.924;2022-12-29T12:49:43;99575.38;;;11.14;72.68
73842;BME280;62184;52.006;5.924;2022-12-29T12:52:33;99572.44;;;11.21;72.55
73842;BME280;62184;52.006;5.924;2022-12-29T12:55:28;99572.81;;;11.30;72.57
73842;BME280;62184;52.006;5.924;2022-12-29T12:58:12;99580.50;;;11.38;72.10
73842;BME280;62184;52.006;5.924;2022-12-29T13:00:56;99580.50;;;11.38;71.38
73842;BME280;62184;52.006;5.924;2022-12-29T13:03:43;99587.72;;;11.36;71.73
73842;BME280;62184;52.006;5.924;2022-12-29T13:06:26;99590.97;;;11.42;71.75
73842;BME280;62184;52.006;5.924;2022-12-29T13:09:23;99589.22;;;11.41;71.56
73842;BME280;62184;52.006;5.924;2022-12-29T13:12:13;99599.28;;;11.36;71.34
73842;BME280;62184;52.006;5.924;2022-12-29T13:15:02;99600.28;;;11.34;71.38
73842;BME280;62184;52.006;5.924;2022-12-29T13:17:47;99599.44;;;11.33;71.10
73842;BME280;62184;52.006;5.924;2022-12-29T13:20:26;99604.06;;;11.30;71.68
73842;BME280;62184;52.006;5.924;2022-12-29T13:23:04;99611.13;;;11.31;71.69
73842;BME280;62184;52.006;5.924;2022-12-29T13:25:44;99612.22;;;11.27;71.67
73842;BME280;62184;52.006;5.924;2022-12-29T13:28:21;99614.25;;;11.22;71.70